PWSweather.com
Personal Weather Stations
Station Observations
KCOBLACK1
Chalet Park, Black Hawk, CO 80422

Chalet ParkBlack Hawk, CO 80422

Lat: 39.8294, Lon: -105.48

Elevation: 9370

Station Type: Vantage Pro2

http://www.oscaranddeb.com/weather

High Low Average
Temperature 48.1°F8.9°F 33.3°F0.7°F 39.7°F4.3°F
Dew Point 7.6°F-13.6°F -1.0°F-18.3°F 4.0°F-15.6°F
Winds 32.0 mph WNW51.5 mph WNW Calm Calm 9.8 mph 15.8 mph
Wind Gusts 57.0 mph91.7 mph 3.0 mph4.8 mph 21.3 mph34.3 mph
Humidity 31% 14% 22%
Pressure 30.25 in1024.40 in 29.95 in1014.20 in -
Precipitation 0.00 in0.00 in - -
Hour Temp Dew Point Humidity Winds Wind Gusts Pressure Precip Precip Rate Daily Precip Total
12:00 AM 37.1°F2.8°C 1.8°F-16.8°C 22% 14.0 mph NW22.5 kmh NW 25.0 mph40.2 kmh 30.25 in1024.4 mb 0.00 in0.0 mm 0.00 in0.0 mm 0.00 in0.0 mm
12:05 AM 37.3°F2.9°C 1.9°F-16.7°C 22% 11.0 mph NW17.7 kmh NW 22.0 mph35.4 kmh 30.25 in1024.4 mb 0.00 in0.0 mm 0.00 in0.0 mm 0.00 in0.0 mm
12:10 AM 37.1°F2.8°C 1.8°F-16.8°C 22% 10.0 mph NW16.1 kmh NW 22.0 mph35.4 kmh 30.25 in1024.4 mb 0.00 in0.0 mm 0.00 in0.0 mm 0.00 in0.0 mm
12:15 AM 37.0°F2.8°C 2.6°F-16.3°C 23% 10.0 mph NW16.1 kmh NW 17.0 mph27.4 kmh 30.25 in1024.4 mb 0.00 in0.0 mm 0.00 in0.0 mm 0.00 in0.0 mm
12:20 AM 36.8°F2.7°C 1.5°F-16.9°C 22% 11.0 mph NW17.7 kmh NW 22.0 mph35.4 kmh 30.25 in1024.4 mb 0.00 in0.0 mm 0.00 in0.0 mm 0.00 in0.0 mm
12:25 AM 36.9°F2.7°C 1.6°F-16.9°C 22% 14.0 mph NW22.5 kmh NW 25.0 mph40.2 kmh 30.25 in1024.4 mb 0.00 in0.0 mm 0.00 in0.0 mm 0.00 in0.0 mm
12:30 AM 36.9°F2.7°C 1.6°F-16.9°C 22% 14.0 mph NNW22.5 kmh NNW 23.0 mph37.0 kmh 30.25 in1024.4 mb 0.00 in0.0 mm 0.00 in0.0 mm 0.00 in0.0 mm
12:35 AM 37.1°F2.8°C 0.8°F-17.3°C 21% 16.0 mph W25.7 kmh W 21.0 mph33.8 kmh 30.24 in1024.0 mb 0.00 in0.0 mm 0.00 in0.0 mm 0.00 in0.0 mm
12:40 AM 37.4°F3.0°C 0.0°F-17.8°C 20% 10.0 mph WNW16.1 kmh WNW 24.0 mph38.6 kmh 30.24 in1024.0 mb 0.00 in0.0 mm 0.00 in0.0 mm 0.00 in0.0 mm
12:45 AM 37.5°F3.1°C -1.0°F-18.3°C 19% 11.0 mph NW17.7 kmh NW 24.0 mph38.6 kmh 30.24 in1024.0 mb 0.00 in0.0 mm 0.00 in0.0 mm 0.00 in0.0 mm
12:50 AM 37.6°F3.1°C -5537.2°C 19% 15.0 mph NW24.1 kmh NW 22.0 mph35.4 kmh 30.24 in1024.0 mb 0.00 in0.0 mm 0.00 in0.0 mm 0.00 in0.0 mm
12:55 AM 37.7°F3.2°C -5537.2°C 19% 11.0 mph NW17.7 kmh NW 22.0 mph35.4 kmh 30.23 in1023.7 mb 0.00 in0.0 mm 0.00 in0.0 mm 0.00 in0.0 mm
01:00 AM 37.6°F3.1°C -5537.2°C 19% 11.0 mph W17.7 kmh W 28.0 mph45.1 kmh 30.23 in1023.7 mb 0.00 in0.0 mm 0.00 in0.0 mm 0.00 in0.0 mm
01:05 AM 37.7°F3.2°C 0.2°F-17.7°C 20% 13.0 mph NW20.9 kmh NW 28.0 mph45.1 kmh 30.23 in1023.7 mb 0.00 in0.0 mm 0.00 in0.0 mm 0.00 in0.0 mm
01:10 AM 37.7°F3.2°C -5537.2°C 19% 11.0 mph NW17.7 kmh NW 26.0 mph41.8 kmh 30.23 in1023.7 mb 0.00 in0.0 mm 0.00 in0.0 mm 0.00 in0.0 mm
01:15 AM 37.8°F3.2°C -5537.2°C 19% 13.0 mph NW20.9 kmh NW 22.0 mph35.4 kmh 30.23 in1023.7 mb 0.00 in0.0 mm 0.00 in0.0 mm 0.00 in0.0 mm
01:20 AM 38.0°F3.3°C -5537.2°C 19% 24.0 mph NW38.6 kmh NW 26.0 mph41.8 kmh 30.23 in1023.7 mb 0.00 in0.0 mm 0.00 in0.0 mm 0.00 in0.0 mm
01:25 AM 38.3°F3.5°C -5537.2°C 18% 10.0 mph W16.1 kmh W 24.0 mph38.6 kmh 30.23 in1023.7 mb 0.00 in0.0 mm 0.00 in0.0 mm 0.00 in0.0 mm
01:30 AM 38.2°F3.4°C -5537.2°C 18% 16.0 mph NW25.7 kmh NW 22.0 mph35.4 kmh 30.23 in1023.7 mb 0.00 in0.0 mm 0.00 in0.0 mm 0.00 in0.0 mm
01:35 AM 38.3°F3.5°C -5537.2°C 18% 13.0 mph NW20.9 kmh NW 25.0 mph40.2 kmh 30.23 in1023.7 mb 0.00 in0.0 mm 0.00 in0.0 mm 0.00 in0.0 mm
01:40 AM 38.4°F3.6°C -5537.2°C 18% 10.0 mph NW16.1 kmh NW 24.0 mph38.6 kmh 30.23 in1023.7 mb 0.00 in0.0 mm 0.00 in0.0 mm 0.00 in0.0 mm
01:45 AM 38.2°F3.4°C -5537.2°C 18% 11.0 mph WNW17.7 kmh WNW 23.0 mph37.0 kmh 30.22 in1023.4 mb 0.00 in0.0 mm 0.00 in0.0 mm 0.00 in0.0 mm
01:50 AM 38.3°F3.5°C -5537.2°C 19% 15.0 mph NNW24.1 kmh NNW 26.0 mph41.8 kmh 30.23 in1023.7 mb 0.00 in0.0 mm 0.00 in0.0 mm 0.00 in0.0 mm
01:55 AM 38.1°F3.4°C -5537.2°C 18% 5.0 mph NW8.0 kmh NW 26.0 mph41.8 kmh 30.23 in1023.7 mb 0.00 in0.0 mm 0.00 in0.0 mm 0.00 in0.0 mm
02:00 AM 38.0°F3.3°C -5537.2°C 19% 9.0 mph NW14.5 kmh NW 26.0 mph41.8 kmh 30.23 in1023.7 mb 0.00 in0.0 mm 0.00 in0.0 mm 0.00 in0.0 mm
02:05 AM 38.0°F3.3°C -5537.2°C 19% 13.0 mph NW20.9 kmh NW 26.0 mph41.8 kmh 30.23 in1023.7 mb 0.00 in0.0 mm 0.00 in0.0 mm 0.00 in0.0 mm
02:10 AM 37.8°F3.2°C -5537.2°C 19% 11.0 mph WNW17.7 kmh WNW 25.0 mph40.2 kmh 30.22 in1023.4 mb 0.00 in0.0 mm 0.00 in0.0 mm 0.00 in0.0 mm
02:15 AM 37.6°F3.1°C 0.2°F-17.7°C 20% 8.0 mph NW12.9 kmh NW 21.0 mph33.8 kmh 30.22 in1023.4 mb 0.00 in0.0 mm 0.00 in0.0 mm 0.00 in0.0 mm
02:20 AM 37.6°F3.1°C -5537.2°C 19% 16.0 mph W25.7 kmh W 23.0 mph37.0 kmh 30.22 in1023.4 mb 0.00 in0.0 mm 0.00 in0.0 mm 0.00 in0.0 mm
02:25 AM 37.6°F3.1°C 0.2°F-17.7°C 20% 4.0 mph W6.4 kmh W 19.0 mph30.6 kmh 30.22 in1023.4 mb 0.00 in0.0 mm 0.00 in0.0 mm 0.00 in0.0 mm
02:30 AM 37.7°F3.2°C 0.2°F-17.7°C 20% 11.0 mph NNW17.7 kmh NNW 23.0 mph37.0 kmh 30.21 in1023.0 mb 0.00 in0.0 mm 0.00 in0.0 mm 0.00 in0.0 mm
02:35 AM 37.7°F3.2°C 0.2°F-17.7°C 20% 3.0 mph SSW4.8 kmh SSW 26.0 mph41.8 kmh 30.22 in1023.4 mb 0.00 in0.0 mm 0.00 in0.0 mm 0.00 in0.0 mm
02:40 AM 37.7°F3.2°C 0.2°F-17.7°C 20% 4.0 mph WSW6.4 kmh WSW 20.0 mph32.2 kmh 30.22 in1023.4 mb 0.00 in0.0 mm 0.00 in0.0 mm 0.00 in0.0 mm
02:45 AM 37.7°F3.2°C 0.2°F-17.7°C 20% 14.0 mph WNW22.5 kmh WNW 23.0 mph37.0 kmh 30.22 in1023.4 mb 0.00 in0.0 mm 0.00 in0.0 mm 0.00 in0.0 mm
02:50 AM 38.1°F3.4°C -5537.2°C 19% 8.0 mph W12.9 kmh W 23.0 mph37.0 kmh 30.22 in1023.4 mb 0.00 in0.0 mm 0.00 in0.0 mm 0.00 in0.0 mm
02:55 AM 38.1°F3.4°C -5537.2°C 19% 11.0 mph NW17.7 kmh NW 22.0 mph35.4 kmh 30.22 in1023.4 mb 0.00 in0.0 mm 0.00 in0.0 mm 0.00 in0.0 mm
03:00 AM 38.2°F3.4°C -5537.2°C 18% 10.0 mph W16.1 kmh W 25.0 mph40.2 kmh 30.22 in1023.4 mb 0.00 in0.0 mm 0.00 in0.0 mm 0.00 in0.0 mm
03:05 AM 38.4°F3.6°C -5537.2°C 18% 11.0 mph NW17.7 kmh NW 20.0 mph32.2 kmh 30.22 in1023.4 mb 0.00 in0.0 mm 0.00 in0.0 mm 0.00 in0.0 mm
03:10 AM 38.5°F3.6°C -5537.2°C 18% 9.0 mph WSW14.5 kmh WSW 20.0 mph32.2 kmh 30.21 in1023.0 mb 0.00 in0.0 mm 0.00 in0.0 mm 0.00 in0.0 mm
03:15 AM 38.4°F3.6°C -5537.2°C 18% 8.0 mph W12.9 kmh W 22.0 mph35.4 kmh 30.22 in1023.4 mb 0.00 in0.0 mm 0.00 in0.0 mm 0.00 in0.0 mm
03:20 AM 38.6°F3.7°C -5537.2°C 18% 10.0 mph NW16.1 kmh NW 21.0 mph33.8 kmh 30.21 in1023.0 mb 0.00 in0.0 mm 0.00 in0.0 mm 0.00 in0.0 mm
03:25 AM 38.6°F3.7°C -5537.2°C 18% 6.0 mph W9.7 kmh W 22.0 mph35.4 kmh 30.22 in1023.4 mb 0.00 in0.0 mm 0.00 in0.0 mm 0.00 in0.0 mm
03:30 AM 38.2°F3.4°C -5537.2°C 19% 7.0 mph NW11.3 kmh NW 15.0 mph24.1 kmh 30.21 in1023.0 mb 0.00 in0.0 mm 0.00 in0.0 mm 0.00 in0.0 mm
03:35 AM 38.2°F3.4°C -5537.2°C 19% 6.0 mph W9.7 kmh W 17.0 mph27.4 kmh 30.21 in1023.0 mb 0.00 in0.0 mm 0.00 in0.0 mm 0.00 in0.0 mm
03:40 AM 38.0°F3.3°C -5537.2°C 19% 6.0 mph NW9.7 kmh NW 28.0 mph45.1 kmh 30.21 in1023.0 mb 0.00 in0.0 mm 0.00 in0.0 mm 0.00 in0.0 mm
03:45 AM 38.0°F3.3°C -5537.2°C 19% 2.0 mph SW3.2 kmh SW 24.0 mph38.6 kmh 30.21 in1023.0 mb 0.00 in0.0 mm 0.00 in0.0 mm 0.00 in0.0 mm
03:50 AM 37.7°F3.2°C 0.2°F-17.7°C 20% 10.0 mph WSW16.1 kmh WSW 20.0 mph32.2 kmh 30.21 in1023.0 mb 0.00 in0.0 mm 0.00 in0.0 mm 0.00 in0.0 mm
03:55 AM 37.4°F3.0°C 1.0°F-17.2°C 21% 8.0 mph WNW12.9 kmh WNW 15.0 mph24.1 kmh 30.21 in1023.0 mb 0.00 in0.0 mm 0.00 in0.0 mm 0.00 in0.0 mm
04:00 AM 37.6°F3.1°C 0.2°F-17.7°C 20% 8.0 mph N12.9 kmh N 15.0 mph24.1 kmh 30.21 in1023.0 mb 0.00 in0.0 mm 0.00 in0.0 mm 0.00 in0.0 mm
04:05 AM 37.6°F3.1°C 0.2°F-17.7°C 20% 4.0 mph WNW6.4 kmh WNW 21.0 mph33.8 kmh 30.21 in1023.0 mb 0.00 in0.0 mm 0.00 in0.0 mm 0.00 in0.0 mm
04:10 AM 37.4°F3.0°C 0.0°F-17.8°C 20% 8.0 mph SW12.9 kmh SW 17.0 mph27.4 kmh 30.21 in1023.0 mb 0.00 in0.0 mm 0.00 in0.0 mm 0.00 in0.0 mm
04:15 AM 37.3°F2.9°C 0.9°F-17.3°C 21% 8.0 mph S12.9 kmh S 14.0 mph22.5 kmh 30.22 in1023.4 mb 0.00 in0.0 mm 0.00 in0.0 mm 0.00 in0.0 mm
04:20 AM 37.2°F2.9°C -5537.2°C 20% Calm Calm 8.0 mph12.9 kmh 30.22 in1023.4 mb 0.00 in0.0 mm 0.00 in0.0 mm 0.00 in0.0 mm
04:25 AM 37.2°F2.9°C -5537.2°C 20% 2.0 mph SSW3.2 kmh SSW 12.0 mph19.3 kmh 30.21 in1023.0 mb 0.00 in0.0 mm 0.00 in0.0 mm 0.00 in0.0 mm
04:30 AM 37.1°F2.8°C -5537.2°C 20% 3.0 mph SW4.8 kmh SW 6.0 mph9.7 kmh 30.22 in1023.4 mb 0.00 in0.0 mm 0.00 in0.0 mm 0.00 in0.0 mm
04:35 AM 36.8°F2.7°C -5537.2°C 20% 4.0 mph SSW6.4 kmh SSW 8.0 mph12.9 kmh 30.21 in1023.0 mb 0.00 in0.0 mm 0.00 in0.0 mm 0.00 in0.0 mm
04:40 AM 36.9°F2.7°C -5537.2°C 20% 3.0 mph SW4.8 kmh SW 7.0 mph11.3 kmh 30.22 in1023.4 mb 0.00 in0.0 mm 0.00 in0.0 mm 0.00 in0.0 mm
04:45 AM 36.8°F2.7°C -5537.2°C 20% 6.0 mph WSW9.7 kmh WSW 8.0 mph12.9 kmh 30.22 in1023.4 mb 0.00 in0.0 mm 0.00 in0.0 mm 0.00 in0.0 mm
04:50 AM 36.6°F2.6°C 0.4°F-17.6°C 21% 10.0 mph NW16.1 kmh NW 10.0 mph16.1 kmh 30.21 in1023.0 mb 0.00 in0.0 mm 0.00 in0.0 mm 0.00 in0.0 mm
04:55 AM 37.0°F2.8°C 0.7°F-17.4°C 21% 3.0 mph W4.8 kmh W 22.0 mph35.4 kmh 30.21 in1023.0 mb 0.00 in0.0 mm 0.00 in0.0 mm 0.00 in0.0 mm
05:00 AM 37.6°F3.1°C 1.2°F-17.1°C 21% 9.0 mph NW14.5 kmh NW 18.0 mph29.0 kmh 30.21 in1023.0 mb 0.00 in0.0 mm 0.00 in0.0 mm 0.00 in0.0 mm
05:05 AM 37.8°F3.2°C 1.4°F-17.0°C 21% 4.0 mph SW6.4 kmh SW 13.0 mph20.9 kmh 30.21 in1023.0 mb 0.00 in0.0 mm 0.00 in0.0 mm 0.00 in0.0 mm
05:10 AM 37.7°F3.2°C 3.2°F-16.0°C 23% 6.0 mph SW9.7 kmh SW 17.0 mph27.4 kmh 30.20 in1022.7 mb 0.00 in0.0 mm 0.00 in0.0 mm 0.00 in0.0 mm
05:15 AM 37.7°F3.2°C 2.3°F-16.5°C 22% 3.0 mph SW4.8 kmh SW 17.0 mph27.4 kmh 30.20 in1022.7 mb 0.00 in0.0 mm 0.00 in0.0 mm 0.00 in0.0 mm
05:20 AM 37.6°F3.1°C 2.2°F-16.6°C 22% 2.0 mph WSW3.2 kmh WSW 12.0 mph19.3 kmh 30.20 in1022.7 mb 0.00 in0.0 mm 0.00 in0.0 mm 0.00 in0.0 mm
05:25 AM 37.2°F2.9°C 2.8°F-16.2°C 23% 5.0 mph WNW8.0 kmh WNW 10.0 mph16.1 kmh 30.19 in1022.4 mb 0.00 in0.0 mm 0.00 in0.0 mm 0.00 in0.0 mm
05:30 AM 37.3°F2.9°C 2.9°F-16.2°C 23% 8.0 mph WNW12.9 kmh WNW 14.0 mph22.5 kmh 30.19 in1022.4 mb 0.00 in0.0 mm 0.00 in0.0 mm 0.00 in0.0 mm
05:35 AM 37.5°F3.1°C 3.1°F-16.1°C 23% 7.0 mph WNW11.3 kmh WNW 15.0 mph24.1 kmh 30.18 in1022.0 mb 0.00 in0.0 mm 0.00 in0.0 mm 0.00 in0.0 mm
05:40 AM 37.5°F3.1°C 3.1°F-16.1°C 23% 10.0 mph NW16.1 kmh NW 12.0 mph19.3 kmh 30.18 in1022.0 mb 0.00 in0.0 mm 0.00 in0.0 mm 0.00 in0.0 mm
05:45 AM 37.5°F3.1°C 3.1°F-16.1°C 23% 8.0 mph W12.9 kmh W 16.0 mph25.7 kmh 30.18 in1022.0 mb 0.00 in0.0 mm 0.00 in0.0 mm 0.00 in0.0 mm
05:50 AM 38.0°F3.3°C 3.5°F-15.8°C 23% 17.0 mph WNW27.4 kmh WNW 22.0 mph35.4 kmh 30.17 in1021.7 mb 0.00 in0.0 mm 0.00 in0.0 mm 0.00 in0.0 mm
05:55 AM 38.1°F3.4°C 3.6°F-15.8°C 23% 6.0 mph NW9.7 kmh NW 34.0 mph54.7 kmh 30.17 in1021.7 mb 0.00 in0.0 mm 0.00 in0.0 mm 0.00 in0.0 mm
06:00 AM 38.0°F3.3°C 3.5°F-15.8°C 23% 18.0 mph WSW29.0 kmh WSW 33.0 mph53.1 kmh 30.16 in1021.3 mb 0.00 in0.0 mm 0.00 in0.0 mm 0.00 in0.0 mm
06:05 AM 38.1°F3.4°C 3.6°F-15.8°C 23% 11.0 mph SW17.7 kmh SW 27.0 mph43.5 kmh 30.17 in1021.7 mb 0.00 in0.0 mm 0.00 in0.0 mm 0.00 in0.0 mm
06:10 AM 37.8°F3.2°C 3.3°F-15.9°C 23% 12.0 mph W19.3 kmh W 23.0 mph37.0 kmh 30.17 in1021.7 mb 0.00 in0.0 mm 0.00 in0.0 mm 0.00 in0.0 mm
06:15 AM 37.7°F3.2°C 4.2°F-15.4°C 24% 3.0 mph WNW4.8 kmh WNW 20.0 mph32.2 kmh 30.17 in1021.7 mb 0.00 in0.0 mm 0.00 in0.0 mm 0.00 in0.0 mm
06:20 AM 37.4°F3.0°C 3.9°F-15.6°C 24% 19.0 mph WSW30.6 kmh WSW 19.0 mph30.6 kmh 30.17 in1021.7 mb 0.00 in0.0 mm 0.00 in0.0 mm 0.00 in0.0 mm
06:25 AM 37.4°F3.0°C 3.9°F-15.6°C 24% 15.0 mph WSW24.1 kmh WSW 26.0 mph41.8 kmh 30.18 in1022.0 mb 0.00 in0.0 mm 0.00 in0.0 mm 0.00 in0.0 mm
06:30 AM 37.5°F3.1°C 4.9°F-15.1°C 25% 14.0 mph W22.5 kmh W 24.0 mph38.6 kmh 30.17 in1021.7 mb 0.00 in0.0 mm 0.00 in0.0 mm 0.00 in0.0 mm
06:35 AM 37.6°F3.1°C 5.0°F-15.0°C 25% 18.0 mph WSW29.0 kmh WSW 25.0 mph40.2 kmh 30.18 in1022.0 mb 0.00 in0.0 mm 0.00 in0.0 mm 0.00 in0.0 mm
06:40 AM 37.5°F3.1°C 4.9°F-15.1°C 25% 11.0 mph NW17.7 kmh NW 27.0 mph43.5 kmh 30.17 in1021.7 mb 0.00 in0.0 mm 0.00 in0.0 mm 0.00 in0.0 mm
06:45 AM 37.3°F2.9°C 4.7°F-15.2°C 25% 4.0 mph W6.4 kmh W 22.0 mph35.4 kmh 30.18 in1022.0 mb 0.00 in0.0 mm 0.00 in0.0 mm 0.00 in0.0 mm
06:50 AM 37.2°F2.9°C 4.6°F-15.2°C 25% 7.0 mph SSW11.3 kmh SSW 20.0 mph32.2 kmh 30.18 in1022.0 mb 0.00 in0.0 mm 0.00 in0.0 mm 0.00 in0.0 mm
06:55 AM 37.1°F2.8°C 4.5°F-15.3°C 25% 7.0 mph SW11.3 kmh SW 22.0 mph35.4 kmh 30.18 in1022.0 mb 0.00 in0.0 mm 0.00 in0.0 mm 0.00 in0.0 mm
07:00 AM 37.2°F2.9°C 4.6°F-15.2°C 25% 12.0 mph SW19.3 kmh SW 19.0 mph30.6 kmh 30.18 in1022.0 mb 0.00 in0.0 mm 0.00 in0.0 mm 0.00 in0.0 mm
07:05 AM 37.2°F2.9°C 4.6°F-15.2°C 25% 5.0 mph WSW8.0 kmh WSW 16.0 mph25.7 kmh 30.18 in1022.0 mb 0.00 in0.0 mm 0.00 in0.0 mm 0.00 in0.0 mm
07:10 AM 37.1°F2.8°C 4.5°F-15.3°C 25% 7.0 mph W11.3 kmh W 18.0 mph29.0 kmh 30.19 in1022.4 mb 0.00 in0.0 mm 0.00 in0.0 mm 0.00 in0.0 mm
07:15 AM 36.8°F2.7°C 4.3°F-15.4°C 25% 6.0 mph W9.7 kmh W 12.0 mph19.3 kmh 30.19 in1022.4 mb 0.00 in0.0 mm 0.00 in0.0 mm 0.00 in0.0 mm
07:20 AM 36.4°F2.4°C 3.9°F-15.6°C 25% 8.0 mph SW12.9 kmh SW 11.0 mph17.7 kmh 30.19 in1022.4 mb 0.00 in0.0 mm 0.00 in0.0 mm 0.00 in0.0 mm
07:25 AM 36.5°F2.5°C 4.0°F-15.6°C 25% 12.0 mph S19.3 kmh S 14.0 mph22.5 kmh 30.20 in1022.7 mb 0.00 in0.0 mm 0.00 in0.0 mm 0.00 in0.0 mm
07:30 AM 36.6°F2.6°C 4.1°F-15.5°C 25% 15.0 mph S24.1 kmh S 16.0 mph25.7 kmh 30.20 in1022.7 mb 0.00 in0.0 mm 0.00 in0.0 mm 0.00 in0.0 mm
07:35 AM 36.7°F2.6°C 4.2°F-15.4°C 25% 8.0 mph S12.9 kmh S 15.0 mph24.1 kmh 30.21 in1023.0 mb 0.00 in0.0 mm 0.00 in0.0 mm 0.00 in0.0 mm
07:40 AM 37.0°F2.8°C 4.4°F-15.3°C 25% 7.0 mph SSW11.3 kmh SSW 15.0 mph24.1 kmh 30.21 in1023.0 mb 0.00 in0.0 mm 0.00 in0.0 mm 0.00 in0.0 mm
07:45 AM 37.2°F2.9°C 3.7°F-15.7°C 24% 10.0 mph S16.1 kmh S 14.0 mph22.5 kmh 30.21 in1023.0 mb 0.00 in0.0 mm 0.00 in0.0 mm 0.00 in0.0 mm
07:50 AM 37.4°F3.0°C 3.9°F-15.6°C 24% 6.0 mph SSW9.7 kmh SSW 16.0 mph25.7 kmh 30.21 in1023.0 mb 0.00 in0.0 mm 0.00 in0.0 mm 0.00 in0.0 mm
07:55 AM 37.4°F3.0°C 3.9°F-15.6°C 24% 8.0 mph SSW12.9 kmh SSW 14.0 mph22.5 kmh 30.21 in1023.0 mb 0.00 in0.0 mm 0.00 in0.0 mm 0.00 in0.0 mm
08:00 AM 37.6°F3.1°C 4.1°F-15.5°C 24% 8.0 mph SW12.9 kmh SW 12.0 mph19.3 kmh 30.21 in1023.0 mb 0.00 in0.0 mm 0.00 in0.0 mm 0.00 in0.0 mm
08:05 AM 37.7°F3.2°C 4.2°F-15.4°C 24% 8.0 mph SW12.9 kmh SW 14.0 mph22.5 kmh 30.20 in1022.7 mb 0.00 in0.0 mm 0.00 in0.0 mm 0.00 in0.0 mm
08:10 AM 38.0°F3.3°C 4.4°F-15.3°C 24% 10.0 mph WSW16.1 kmh WSW 12.0 mph19.3 kmh 30.20 in1022.7 mb 0.00 in0.0 mm 0.00 in0.0 mm 0.00 in0.0 mm
08:15 AM 38.4°F3.6°C 3.8°F-15.7°C 23% 11.0 mph WSW17.7 kmh WSW 13.0 mph20.9 kmh 30.19 in1022.4 mb 0.00 in0.0 mm 0.00 in0.0 mm 0.00 in0.0 mm
08:20 AM 38.4°F3.6°C 4.7°F-15.2°C 24% 4.0 mph W6.4 kmh W 12.0 mph19.3 kmh 30.19 in1022.4 mb 0.00 in0.0 mm 0.00 in0.0 mm 0.00 in0.0 mm
08:25 AM 38.6°F3.7°C 4.9°F-15.1°C 24% 7.0 mph SW11.3 kmh SW 15.0 mph24.1 kmh 30.18 in1022.0 mb 0.00 in0.0 mm 0.00 in0.0 mm 0.00 in0.0 mm
08:30 AM 39.1°F3.9°C 3.5°F-15.8°C 22% 18.0 mph SW29.0 kmh SW 23.0 mph37.0 kmh 30.17 in1021.7 mb 0.00 in0.0 mm 0.00 in0.0 mm 0.00 in0.0 mm
08:35 AM 39.5°F4.2°C 3.8°F-15.7°C 22% 23.0 mph WSW37.0 kmh WSW 32.0 mph51.5 kmh 30.16 in1021.3 mb 0.00 in0.0 mm 0.00 in0.0 mm 0.00 in0.0 mm
08:40 AM 39.7°F4.3°C 4.0°F-15.6°C 22% 5.0 mph WNW8.0 kmh WNW 37.0 mph59.5 kmh 30.16 in1021.3 mb 0.00 in0.0 mm 0.00 in0.0 mm 0.00 in0.0 mm
08:45 AM 39.8°F4.3°C 4.0°F-15.6°C 22% 10.0 mph SW16.1 kmh SW 33.0 mph53.1 kmh 30.16 in1021.3 mb 0.00 in0.0 mm 0.00 in0.0 mm 0.00 in0.0 mm
08:50 AM 40.2°F4.6°C 4.4°F-15.3°C 22% 16.0 mph SW25.7 kmh SW 28.0 mph45.1 kmh 30.16 in1021.3 mb 0.00 in0.0 mm 0.00 in0.0 mm 0.00 in0.0 mm
08:55 AM 40.6°F4.8°C 4.7°F-15.2°C 22% 8.0 mph WSW12.9 kmh WSW 21.0 mph33.8 kmh 30.16 in1021.3 mb 0.00 in0.0 mm 0.00 in0.0 mm 0.00 in0.0 mm
09:00 AM 40.6°F4.8°C 4.7°F-15.2°C 22% 20.0 mph WSW32.2 kmh WSW 22.0 mph35.4 kmh 30.16 in1021.3 mb 0.00 in0.0 mm 0.00 in0.0 mm 0.00 in0.0 mm
09:05 AM 40.7°F4.8°C 3.8°F-15.7°C 21% 2.0 mph WSW3.2 kmh WSW 20.0 mph32.2 kmh 30.16 in1021.3 mb 0.00 in0.0 mm 0.00 in0.0 mm 0.00 in0.0 mm
09:10 AM 40.8°F4.9°C 3.9°F-15.6°C 21% 8.0 mph WSW12.9 kmh WSW 26.0 mph41.8 kmh 30.16 in1021.3 mb 0.00 in0.0 mm 0.00 in0.0 mm 0.00 in0.0 mm
09:15 AM 41.0°F5.0°C 4.0°F-15.6°C 21% 11.0 mph WSW17.7 kmh WSW 15.0 mph24.1 kmh 30.16 in1021.3 mb 0.00 in0.0 mm 0.00 in0.0 mm 0.00 in0.0 mm
09:20 AM 41.1°F5.1°C 4.1°F-15.5°C 21% 7.0 mph SW11.3 kmh SW 15.0 mph24.1 kmh 30.16 in1021.3 mb 0.00 in0.0 mm 0.00 in0.0 mm 0.00 in0.0 mm
09:25 AM 41.3°F5.2°C 3.2°F-16.0°C 20% 2.0 mph WSW3.2 kmh WSW 15.0 mph24.1 kmh 30.15 in1021.0 mb 0.00 in0.0 mm 0.00 in0.0 mm 0.00 in0.0 mm
09:30 AM 41.9°F5.5°C 3.7°F-15.7°C 20% 9.0 mph NW14.5 kmh NW 11.0 mph17.7 kmh 30.17 in1021.7 mb 0.00 in0.0 mm 0.00 in0.0 mm 0.00 in0.0 mm
09:35 AM 42.6°F5.9°C 3.2°F-16.0°C 19% 8.0 mph SW12.9 kmh SW 33.0 mph53.1 kmh 30.16 in1021.3 mb 0.00 in0.0 mm 0.00 in0.0 mm 0.00 in0.0 mm
09:40 AM 42.9°F6.1°C 2.3°F-16.5°C 18% 10.0 mph WSW16.1 kmh WSW 15.0 mph24.1 kmh 30.17 in1021.7 mb 0.00 in0.0 mm 0.00 in0.0 mm 0.00 in0.0 mm
09:45 AM 43.3°F6.3°C 2.6°F-16.3°C 18% 14.0 mph WNW22.5 kmh WNW 17.0 mph27.4 kmh 30.17 in1021.7 mb 0.00 in0.0 mm 0.00 in0.0 mm 0.00 in0.0 mm
09:50 AM 43.4°F6.3°C 2.7°F-16.3°C 18% 7.0 mph NW11.3 kmh NW 21.0 mph33.8 kmh 30.17 in1021.7 mb 0.00 in0.0 mm 0.00 in0.0 mm 0.00 in0.0 mm
09:55 AM 43.6°F6.4°C 1.7°F-16.8°C 17% 12.0 mph NE19.3 kmh NE 22.0 mph35.4 kmh 30.17 in1021.7 mb 0.00 in0.0 mm 0.00 in0.0 mm 0.00 in0.0 mm
10:00 AM 43.3°F6.3°C 3.8°F-15.7°C 19% 4.0 mph NW6.4 kmh NW 19.0 mph30.6 kmh 30.18 in1022.0 mb 0.00 in0.0 mm 0.00 in0.0 mm 0.00 in0.0 mm
10:05 AM 42.9°F6.1°C 3.5°F-15.8°C 19% 4.0 mph W6.4 kmh W 17.0 mph27.4 kmh 30.18 in1022.0 mb 0.00 in0.0 mm 0.00 in0.0 mm 0.00 in0.0 mm
10:10 AM 42.6°F5.9°C 3.2°F-16.0°C 19% 10.0 mph SW16.1 kmh SW 30.0 mph48.3 kmh 30.20 in1022.7 mb 0.00 in0.0 mm 0.00 in0.0 mm 0.00 in0.0 mm
10:15 AM 42.5°F5.8°C 3.1°F-16.1°C 19% 14.0 mph W22.5 kmh W 26.0 mph41.8 kmh 30.19 in1022.4 mb 0.00 in0.0 mm 0.00 in0.0 mm 0.00 in0.0 mm
10:20 AM 42.6°F5.9°C 2.1°F-16.6°C 18% 9.0 mph NW14.5 kmh NW 30.0 mph48.3 kmh 30.19 in1022.4 mb 0.00 in0.0 mm 0.00 in0.0 mm 0.00 in0.0 mm
10:25 AM 42.8°F6.0°C 4.5°F-15.3°C 20% 2.0 mph NW3.2 kmh NW 16.0 mph25.7 kmh 30.19 in1022.4 mb 0.00 in0.0 mm 0.00 in0.0 mm 0.00 in0.0 mm
10:30 AM 42.7°F5.9°C 4.4°F-15.3°C 20% 10.0 mph W16.1 kmh W 20.0 mph32.2 kmh 30.19 in1022.4 mb 0.00 in0.0 mm 0.00 in0.0 mm 0.00 in0.0 mm
10:35 AM 42.6°F5.9°C 4.3°F-15.4°C 20% 9.0 mph NW14.5 kmh NW 17.0 mph27.4 kmh 30.18 in1022.0 mb 0.00 in0.0 mm 0.00 in0.0 mm 0.00 in0.0 mm
10:40 AM 42.6°F5.9°C 4.3°F-15.4°C 20% 7.0 mph W11.3 kmh W 25.0 mph40.2 kmh 30.19 in1022.4 mb 0.00 in0.0 mm 0.00 in0.0 mm 0.00 in0.0 mm
10:45 AM 42.6°F5.9°C 5.4°F-14.8°C 21% 4.0 mph WSW6.4 kmh WSW 18.0 mph29.0 kmh 30.18 in1022.0 mb 0.00 in0.0 mm 0.00 in0.0 mm 0.00 in0.0 mm
10:50 AM 43.0°F6.1°C 4.7°F-15.2°C 20% 10.0 mph NNW16.1 kmh NNW 19.0 mph30.6 kmh 30.18 in1022.0 mb 0.00 in0.0 mm 0.00 in0.0 mm 0.00 in0.0 mm
10:55 AM 43.1°F6.2°C 4.7°F-15.2°C 20% 8.0 mph W12.9 kmh W 22.0 mph35.4 kmh 30.18 in1022.0 mb 0.00 in0.0 mm 0.00 in0.0 mm 0.00 in0.0 mm
11:00 AM 43.5°F6.4°C 4.0°F-15.6°C 19% 22.0 mph NW35.4 kmh NW 23.0 mph37.0 kmh 30.18 in1022.0 mb 0.00 in0.0 mm 0.00 in0.0 mm 0.00 in0.0 mm
11:05 AM 43.6°F6.4°C 1.7°F-16.8°C 17% 15.0 mph NW24.1 kmh NW 25.0 mph40.2 kmh 30.17 in1021.7 mb 0.00 in0.0 mm 0.00 in0.0 mm 0.00 in0.0 mm
11:10 AM 44.2°F6.8°C 2.1°F-16.6°C 17% 16.0 mph NW25.7 kmh NW 22.0 mph35.4 kmh 30.17 in1021.7 mb 0.00 in0.0 mm 0.00 in0.0 mm 0.00 in0.0 mm
11:15 AM 44.5°F6.9°C 2.4°F-16.4°C 17% 3.0 mph WSW4.8 kmh WSW 18.0 mph29.0 kmh 30.16 in1021.3 mb 0.00 in0.0 mm 0.00 in0.0 mm 0.00 in0.0 mm
11:20 AM 44.9°F7.2°C 2.7°F-16.3°C 17% 5.0 mph N8.0 kmh N 13.0 mph20.9 kmh 30.16 in1021.3 mb 0.00 in0.0 mm 0.00 in0.0 mm 0.00 in0.0 mm
11:25 AM 45.4°F7.4°C 3.1°F-16.1°C 17% 8.0 mph W12.9 kmh W 17.0 mph27.4 kmh 30.16 in1021.3 mb 0.00 in0.0 mm 0.00 in0.0 mm 0.00 in0.0 mm
11:30 AM 45.9°F7.7°C 4.8°F-15.1°C 18% 8.0 mph SW12.9 kmh SW 17.0 mph27.4 kmh 30.15 in1021.0 mb 0.00 in0.0 mm 0.00 in0.0 mm 0.00 in0.0 mm
11:35 AM 46.2°F7.9°C 1.1°F-17.2°C 15% 18.0 mph WSW29.0 kmh WSW 18.0 mph29.0 kmh 30.15 in1021.0 mb 0.00 in0.0 mm 0.00 in0.0 mm 0.00 in0.0 mm
11:40 AM 46.2°F7.9°C 2.5°F-16.4°C 16% 16.0 mph N25.7 kmh N 22.0 mph35.4 kmh 30.14 in1020.7 mb 0.00 in0.0 mm 0.00 in0.0 mm 0.00 in0.0 mm
11:45 AM 45.7°F7.6°C 2.1°F-16.6°C 16% 4.0 mph SW6.4 kmh SW 27.0 mph43.5 kmh 30.15 in1021.0 mb 0.00 in0.0 mm 0.00 in0.0 mm 0.00 in0.0 mm
11:50 AM 46.1°F7.8°C 1.0°F-17.2°C 15% 10.0 mph W16.1 kmh W 26.0 mph41.8 kmh 30.14 in1020.7 mb 0.00 in0.0 mm 0.00 in0.0 mm 0.00 in0.0 mm
11:55 AM 46.3°F7.9°C 1.2°F-17.1°C 15% 3.0 mph WSW4.8 kmh WSW 20.0 mph32.2 kmh 30.13 in1020.3 mb 0.00 in0.0 mm 0.00 in0.0 mm 0.00 in0.0 mm
12:00 PM 46.7°F8.2°C 2.9°F-16.2°C 16% 14.0 mph NNW22.5 kmh NNW 16.0 mph25.7 kmh 30.14 in1020.7 mb 0.00 in0.0 mm 0.00 in0.0 mm 0.00 in0.0 mm
12:05 PM 46.8°F8.2°C 0.1°F-17.7°C 14% 14.0 mph NW22.5 kmh NW 22.0 mph35.4 kmh 30.13 in1020.3 mb 0.00 in0.0 mm 0.00 in0.0 mm 0.00 in0.0 mm
12:10 PM 46.1°F7.8°C 1.0°F-17.2°C 15% 13.0 mph WNW20.9 kmh WNW 22.0 mph35.4 kmh 30.13 in1020.3 mb 0.00 in0.0 mm 0.00 in0.0 mm 0.00 in0.0 mm
12:15 PM 46.0°F7.8°C 0.9°F-17.3°C 15% 15.0 mph NW24.1 kmh NW 22.0 mph35.4 kmh 30.13 in1020.3 mb 0.00 in0.0 mm 0.00 in0.0 mm 0.00 in0.0 mm
12:20 PM 46.0°F7.8°C 0.9°F-17.3°C 15% 15.0 mph W24.1 kmh W 30.0 mph48.3 kmh 30.12 in1020.0 mb 0.00 in0.0 mm 0.00 in0.0 mm 0.00 in0.0 mm
12:25 PM 46.5°F8.1°C 2.7°F-16.3°C 16% 8.0 mph W12.9 kmh W 28.0 mph45.1 kmh 30.10 in1019.3 mb 0.00 in0.0 mm 0.00 in0.0 mm 0.00 in0.0 mm
12:30 PM 46.8°F8.2°C 3.0°F-16.1°C 16% 7.0 mph W11.3 kmh W 26.0 mph41.8 kmh 30.11 in1019.6 mb 0.00 in0.0 mm 0.00 in0.0 mm 0.00 in0.0 mm
12:35 PM 46.9°F8.3°C 0.2°F-17.7°C 14% 14.0 mph SW22.5 kmh SW 26.0 mph41.8 kmh 30.10 in1019.3 mb 0.00 in0.0 mm 0.00 in0.0 mm 0.00 in0.0 mm
12:40 PM 46.7°F8.2°C 1.5°F-16.9°C 15% 4.0 mph W6.4 kmh W 24.0 mph38.6 kmh 30.10 in1019.3 mb 0.00 in0.0 mm 0.00 in0.0 mm 0.00 in0.0 mm
12:45 PM 47.4°F8.6°C 3.4°F-15.9°C 16% 8.0 mph W12.9 kmh W 13.0 mph20.9 kmh 30.10 in1019.3 mb 0.00 in0.0 mm 0.00 in0.0 mm 0.00 in0.0 mm
12:50 PM 48.1°F8.9°C 1.1°F-17.2°C 14% 9.0 mph SW14.5 kmh SW 21.0 mph33.8 kmh 30.09 in1019.0 mb 0.00 in0.0 mm 0.00 in0.0 mm 0.00 in0.0 mm
12:55 PM 47.9°F8.8°C 1.0°F-17.2°C 14% 7.0 mph SSW11.3 kmh SSW 21.0 mph33.8 kmh 30.09 in1019.0 mb 0.00 in0.0 mm 0.00 in0.0 mm 0.00 in0.0 mm
01:00 PM 47.5°F8.6°C 2.1°F-16.6°C 15% 7.0 mph W11.3 kmh W 17.0 mph27.4 kmh 30.09 in1019.0 mb 0.00 in0.0 mm 0.00 in0.0 mm 0.00 in0.0 mm
01:05 PM 47.8°F8.8°C 0.9°F-17.3°C 14% 15.0 mph WNW24.1 kmh WNW 21.0 mph33.8 kmh 30.09 in1019.0 mb 0.00 in0.0 mm 0.00 in0.0 mm 0.00 in0.0 mm
01:10 PM 48.0°F8.9°C 3.9°F-15.6°C 16% 12.0 mph NNW19.3 kmh NNW 15.0 mph24.1 kmh 30.09 in1019.0 mb 0.00 in0.0 mm 0.00 in0.0 mm 0.00 in0.0 mm
01:15 PM 47.4°F8.6°C 3.4°F-15.9°C 16% 9.0 mph WNW14.5 kmh WNW 20.0 mph32.2 kmh 30.09 in1019.0 mb 0.00 in0.0 mm 0.00 in0.0 mm 0.00 in0.0 mm
01:20 PM 46.8°F8.2°C 3.0°F-16.1°C 16% 2.0 mph NW3.2 kmh NW 19.0 mph30.6 kmh 30.09 in1019.0 mb 0.00 in0.0 mm 0.00 in0.0 mm 0.00 in0.0 mm
01:25 PM 46.8°F8.2°C 3.0°F-16.1°C 16% 6.0 mph SW9.7 kmh SW 16.0 mph25.7 kmh 30.08 in1018.6 mb 0.00 in0.0 mm 0.00 in0.0 mm 0.00 in0.0 mm
01:30 PM 47.0°F8.3°C 4.4°F-15.3°C 17% 10.0 mph W16.1 kmh W 17.0 mph27.4 kmh 30.07 in1018.3 mb 0.00 in0.0 mm 0.00 in0.0 mm 0.00 in0.0 mm
01:35 PM 46.8°F8.2°C 3.0°F-16.1°C 16% 5.0 mph SW8.0 kmh SW 17.0 mph27.4 kmh 30.07 in1018.3 mb 0.00 in0.0 mm 0.00 in0.0 mm 0.00 in0.0 mm
01:40 PM 46.6°F8.1°C 2.8°F-16.2°C 16% 8.0 mph SW12.9 kmh SW 24.0 mph38.6 kmh 30.07 in1018.3 mb 0.00 in0.0 mm 0.00 in0.0 mm 0.00 in0.0 mm
01:45 PM 46.0°F7.8°C 2.3°F-16.5°C 16% 7.0 mph WNW11.3 kmh WNW 29.0 mph46.7 kmh 30.06 in1017.9 mb 0.00 in0.0 mm 0.00 in0.0 mm 0.00 in0.0 mm
01:50 PM 45.9°F7.7°C 4.8°F-15.1°C 18% 17.0 mph WNW27.4 kmh WNW 20.0 mph32.2 kmh 30.06 in1017.9 mb 0.00 in0.0 mm 0.00 in0.0 mm 0.00 in0.0 mm
01:55 PM 45.7°F7.6°C 3.4°F-15.9°C 17% 9.0 mph W14.5 kmh W 21.0 mph33.8 kmh 30.05 in1017.6 mb 0.00 in0.0 mm 0.00 in0.0 mm 0.00 in0.0 mm
02:00 PM 45.4°F7.4°C 4.4°F-15.3°C 18% 15.0 mph W24.1 kmh W 21.0 mph33.8 kmh 30.05 in1017.6 mb 0.00 in0.0 mm 0.00 in0.0 mm 0.00 in0.0 mm
02:05 PM 45.4°F7.4°C 3.1°F-16.1°C 17% 14.0 mph W22.5 kmh W 20.0 mph32.2 kmh 30.05 in1017.6 mb 0.00 in0.0 mm 0.00 in0.0 mm 0.00 in0.0 mm
02:10 PM 45.5°F7.5°C 3.2°F-16.0°C 17% 3.0 mph W4.8 kmh W 19.0 mph30.6 kmh 30.06 in1017.9 mb 0.00 in0.0 mm 0.00 in0.0 mm 0.00 in0.0 mm
02:15 PM 45.5°F7.5°C 4.4°F-15.3°C 18% 14.0 mph NW22.5 kmh NW 14.0 mph22.5 kmh 30.06 in1017.9 mb 0.00 in0.0 mm 0.00 in0.0 mm 0.00 in0.0 mm
02:20 PM 45.5°F7.5°C 4.4°F-15.3°C 18% 7.0 mph WNW11.3 kmh WNW 15.0 mph24.1 kmh 30.06 in1017.9 mb 0.00 in0.0 mm 0.00 in0.0 mm 0.00 in0.0 mm
02:25 PM 45.4°F7.4°C 4.4°F-15.3°C 18% 10.0 mph NW16.1 kmh NW 12.0 mph19.3 kmh 30.06 in1017.9 mb 0.00 in0.0 mm 0.00 in0.0 mm 0.00 in0.0 mm
02:30 PM 45.5°F7.5°C 3.2°F-16.0°C 17% 9.0 mph NW14.5 kmh NW 14.0 mph22.5 kmh 30.06 in1017.9 mb 0.00 in0.0 mm 0.00 in0.0 mm 0.00 in0.0 mm
02:35 PM 45.9°F7.7°C 2.2°F-16.6°C 16% 9.0 mph WNW14.5 kmh WNW 23.0 mph37.0 kmh 30.06 in1017.9 mb 0.00 in0.0 mm 0.00 in0.0 mm 0.00 in0.0 mm
02:40 PM 45.9°F7.7°C 2.2°F-16.6°C 16% 7.0 mph WSW11.3 kmh WSW 17.0 mph27.4 kmh 30.04 in1017.3 mb 0.00 in0.0 mm 0.00 in0.0 mm 0.00 in0.0 mm
02:45 PM 45.8°F7.7°C 2.1°F-16.6°C 16% 12.0 mph WSW19.3 kmh WSW 28.0 mph45.1 kmh 30.04 in1017.3 mb 0.00 in0.0 mm 0.00 in0.0 mm 0.00 in0.0 mm
02:50 PM 45.6°F7.6°C 3.3°F-15.9°C 17% 17.0 mph NW27.4 kmh NW 25.0 mph40.2 kmh 30.05 in1017.6 mb 0.00 in0.0 mm 0.00 in0.0 mm 0.00 in0.0 mm
02:55 PM 45.4°F7.4°C 3.1°F-16.1°C 17% 21.0 mph NW33.8 kmh NW 23.0 mph37.0 kmh 30.04 in1017.3 mb 0.00 in0.0 mm 0.00 in0.0 mm 0.00 in0.0 mm
03:00 PM 45.1°F7.3°C 2.9°F-16.2°C 17% 8.0 mph W12.9 kmh W 24.0 mph38.6 kmh 30.05 in1017.6 mb 0.00 in0.0 mm 0.00 in0.0 mm 0.00 in0.0 mm
03:05 PM 45.1°F7.3°C 2.9°F-16.2°C 17% 9.0 mph W14.5 kmh W 26.0 mph41.8 kmh 30.04 in1017.3 mb 0.00 in0.0 mm 0.00 in0.0 mm 0.00 in0.0 mm
03:10 PM 44.8°F7.1°C 2.6°F-16.3°C 17% 17.0 mph WNW27.4 kmh WNW 27.0 mph43.5 kmh 30.04 in1017.3 mb 0.00 in0.0 mm 0.00 in0.0 mm 0.00 in0.0 mm
03:15 PM 44.7°F7.1°C 3.8°F-15.7°C 18% 23.0 mph WSW37.0 kmh WSW 31.0 mph49.9 kmh 30.03 in1016.9 mb 0.00 in0.0 mm 0.00 in0.0 mm 0.00 in0.0 mm
03:20 PM 44.5°F6.9°C 3.6°F-15.8°C 18% 18.0 mph W29.0 kmh W 35.0 mph56.3 kmh 30.01 in1016.3 mb 0.00 in0.0 mm 0.00 in0.0 mm 0.00 in0.0 mm
03:25 PM 44.2°F6.8°C 4.5°F-15.3°C 19% 26.0 mph WSW41.8 kmh WSW 39.0 mph62.8 kmh 30.01 in1016.3 mb 0.00 in0.0 mm 0.00 in0.0 mm 0.00 in0.0 mm
03:30 PM 44.1°F6.7°C 4.5°F-15.3°C 19% 32.0 mph SW51.5 kmh SW 41.0 mph66.0 kmh 30.00 in1015.9 mb 0.00 in0.0 mm 0.00 in0.0 mm 0.00 in0.0 mm
03:35 PM 44.0°F6.7°C 4.4°F-15.3°C 19% 32.0 mph WNW51.5 kmh WNW 39.0 mph62.8 kmh 30.01 in1016.3 mb 0.00 in0.0 mm 0.00 in0.0 mm 0.00 in0.0 mm
03:40 PM 44.0°F6.7°C 5.5°F-14.7°C 20% 10.0 mph SSW16.1 kmh SSW 36.0 mph57.9 kmh 30.00 in1015.9 mb 0.00 in0.0 mm 0.00 in0.0 mm 0.00 in0.0 mm
03:45 PM 44.7°F7.1°C 7.1°F-13.8°C 21% 9.0 mph WNW14.5 kmh WNW 40.0 mph64.4 kmh 30.00 in1015.9 mb 0.00 in0.0 mm 0.00 in0.0 mm 0.00 in0.0 mm
03:50 PM 45.2°F7.3°C 6.5°F-14.2°C 20% 16.0 mph W25.7 kmh W 39.0 mph62.8 kmh 29.99 in1015.6 mb 0.00 in0.0 mm 0.00 in0.0 mm 0.00 in0.0 mm
03:55 PM 45.3°F7.4°C 6.6°F-14.1°C 20% 18.0 mph NW29.0 kmh NW 39.0 mph62.8 kmh 29.98 in1015.2 mb 0.00 in0.0 mm 0.00 in0.0 mm 0.00 in0.0 mm
04:00 PM 45.5°F7.5°C 6.7°F-14.1°C 20% 17.0 mph W27.4 kmh W 37.0 mph59.5 kmh 29.99 in1015.6 mb 0.00 in0.0 mm 0.00 in0.0 mm 0.00 in0.0 mm
04:05 PM 45.2°F7.3°C 4.2°F-15.4°C 18% 22.0 mph W35.4 kmh W 57.0 mph91.7 kmh 30.00 in1015.9 mb 0.00 in0.0 mm 0.00 in0.0 mm 0.00 in0.0 mm
04:10 PM 45.5°F7.5°C 6.7°F-14.1°C 20% 13.0 mph W20.9 kmh W 28.0 mph45.1 kmh 30.01 in1016.3 mb 0.00 in0.0 mm 0.00 in0.0 mm 0.00 in0.0 mm
04:15 PM 45.4°F7.4°C 5.5°F-14.7°C 19% 28.0 mph SW45.1 kmh SW 40.0 mph64.4 kmh 29.98 in1015.2 mb 0.00 in0.0 mm 0.00 in0.0 mm 0.00 in0.0 mm
04:20 PM 45.1°F7.3°C 5.3°F-14.8°C 19% 15.0 mph WSW24.1 kmh WSW 46.0 mph74.0 kmh 29.96 in1014.6 mb 0.00 in0.0 mm 0.00 in0.0 mm 0.00 in0.0 mm
04:25 PM 45.0°F7.2°C 4.0°F-15.6°C 18% 22.0 mph WNW35.4 kmh WNW 47.0 mph75.6 kmh 29.95 in1014.2 mb 0.00 in0.0 mm 0.00 in0.0 mm 0.00 in0.0 mm
04:30 PM 44.8°F7.1°C 2.6°F-16.3°C 17% 15.0 mph WSW24.1 kmh WSW 42.0 mph67.6 kmh 29.97 in1014.9 mb 0.00 in0.0 mm 0.00 in0.0 mm 0.00 in0.0 mm
04:35 PM 45.0°F7.2°C 4.0°F-15.6°C 18% 4.0 mph NW6.4 kmh NW 33.0 mph53.1 kmh 29.99 in1015.6 mb 0.00 in0.0 mm 0.00 in0.0 mm 0.00 in0.0 mm
04:40 PM 45.0°F7.2°C 5.2°F-14.9°C 19% 12.0 mph W19.3 kmh W 36.0 mph57.9 kmh 30.02 in1016.6 mb 0.00 in0.0 mm 0.00 in0.0 mm 0.00 in0.0 mm
04:45 PM 44.9°F7.2°C 5.1°F-14.9°C 19% 14.0 mph NNW22.5 kmh NNW 26.0 mph41.8 kmh 30.02 in1016.6 mb 0.00 in0.0 mm 0.00 in0.0 mm 0.00 in0.0 mm
04:50 PM 44.7°F7.1°C 5.0°F-15.0°C 19% 11.0 mph SSW17.7 kmh SSW 34.0 mph54.7 kmh 30.02 in1016.6 mb 0.00 in0.0 mm 0.00 in0.0 mm 0.00 in0.0 mm
04:55 PM 44.3°F6.8°C 5.7°F-14.6°C 20% 26.0 mph WNW41.8 kmh WNW 31.0 mph49.9 kmh 30.00 in1015.9 mb 0.00 in0.0 mm 0.00 in0.0 mm 0.00 in0.0 mm
05:00 PM 44.1°F6.7°C 5.6°F-14.7°C 20% 8.0 mph W12.9 kmh W 26.0 mph41.8 kmh 30.00 in1015.9 mb 0.00 in0.0 mm 0.00 in0.0 mm 0.00 in0.0 mm
05:05 PM 43.9°F6.6°C 4.3°F-15.4°C 19% 15.0 mph W24.1 kmh W 35.0 mph56.3 kmh 29.99 in1015.6 mb 0.00 in0.0 mm 0.00 in0.0 mm 0.00 in0.0 mm
05:10 PM 43.3°F6.3°C 4.9°F-15.1°C 20% 10.0 mph NW16.1 kmh NW 39.0 mph62.8 kmh 29.98 in1015.2 mb 0.00 in0.0 mm 0.00 in0.0 mm 0.00 in0.0 mm
05:15 PM 42.8°F6.0°C 6.6°F-14.1°C 22% 7.0 mph W11.3 kmh W 32.0 mph51.5 kmh 29.99 in1015.6 mb 0.00 in0.0 mm 0.00 in0.0 mm 0.00 in0.0 mm
05:20 PM 42.1°F5.6°C 6.0°F-14.4°C 22% 5.0 mph WSW8.0 kmh WSW 28.0 mph45.1 kmh 30.01 in1016.3 mb 0.00 in0.0 mm 0.00 in0.0 mm 0.00 in0.0 mm
05:25 PM 41.7°F5.4°C 6.6°F-14.1°C 23% 16.0 mph NW25.7 kmh NW 26.0 mph41.8 kmh 30.01 in1016.3 mb 0.00 in0.0 mm 0.00 in0.0 mm 0.00 in0.0 mm
05:30 PM 41.1°F5.1°C 7.0°F-13.9°C 24% 17.0 mph W27.4 kmh W 29.0 mph46.7 kmh 30.01 in1016.3 mb 0.00 in0.0 mm 0.00 in0.0 mm 0.00 in0.0 mm
05:35 PM 40.7°F4.8°C 6.7°F-14.1°C 24% 12.0 mph WNW19.3 kmh WNW 32.0 mph51.5 kmh 30.02 in1016.6 mb 0.00 in0.0 mm 0.00 in0.0 mm 0.00 in0.0 mm
05:40 PM 40.3°F4.6°C 7.3°F-13.7°C 25% 6.0 mph WNW9.7 kmh WNW 22.0 mph35.4 kmh 30.02 in1016.6 mb 0.00 in0.0 mm 0.00 in0.0 mm 0.00 in0.0 mm
05:45 PM 40.0°F4.4°C 7.0°F-13.9°C 25% 3.0 mph WNW4.8 kmh WNW 31.0 mph49.9 kmh 30.03 in1016.9 mb 0.00 in0.0 mm 0.00 in0.0 mm 0.00 in0.0 mm
05:50 PM 39.7°F4.3°C 7.6°F-13.6°C 26% 5.0 mph NW8.0 kmh NW 25.0 mph40.2 kmh 30.03 in1016.9 mb 0.00 in0.0 mm 0.00 in0.0 mm 0.00 in0.0 mm
05:55 PM 39.5°F4.2°C 6.6°F-14.1°C 25% 24.0 mph N38.6 kmh N 27.0 mph43.5 kmh 30.04 in1017.3 mb 0.00 in0.0 mm 0.00 in0.0 mm 0.00 in0.0 mm
06:00 PM 39.2°F4.0°C 6.3°F-14.3°C 25% 11.0 mph WNW17.7 kmh WNW 24.0 mph38.6 kmh 30.04 in1017.3 mb 0.00 in0.0 mm 0.00 in0.0 mm 0.00 in0.0 mm
06:05 PM 39.1°F3.9°C 6.2°F-14.3°C 25% 26.0 mph WNW41.8 kmh WNW 29.0 mph46.7 kmh 30.03 in1016.9 mb 0.00 in0.0 mm 0.00 in0.0 mm 0.00 in0.0 mm
06:10 PM 38.8°F3.8°C 6.8°F-14.0°C 26% 6.0 mph W9.7 kmh W 30.0 mph48.3 kmh 30.04 in1017.3 mb 0.00 in0.0 mm 0.00 in0.0 mm 0.00 in0.0 mm
06:15 PM 38.7°F3.7°C 5.9°F-14.5°C 25% 16.0 mph W25.7 kmh W 26.0 mph41.8 kmh 30.04 in1017.3 mb 0.00 in0.0 mm 0.00 in0.0 mm 0.00 in0.0 mm
06:20 PM 38.4°F3.6°C 5.6°F-14.7°C 25% 16.0 mph WSW25.7 kmh WSW 28.0 mph45.1 kmh 30.04 in1017.3 mb 0.00 in0.0 mm 0.00 in0.0 mm 0.00 in0.0 mm
06:25 PM 38.4°F3.6°C 5.6°F-14.7°C 25% 25.0 mph NW40.2 kmh NW 27.0 mph43.5 kmh 30.04 in1017.3 mb 0.00 in0.0 mm 0.00 in0.0 mm 0.00 in0.0 mm
06:30 PM 38.2°F3.4°C 6.3°F-14.3°C 26% 8.0 mph W12.9 kmh W 29.0 mph46.7 kmh 30.05 in1017.6 mb 0.00 in0.0 mm 0.00 in0.0 mm 0.00 in0.0 mm
06:35 PM 38.0°F3.3°C 6.1°F-14.4°C 26% 6.0 mph W9.7 kmh W 31.0 mph49.9 kmh 30.05 in1017.6 mb 0.00 in0.0 mm 0.00 in0.0 mm 0.00 in0.0 mm
06:40 PM 37.7°F3.2°C 5.0°F-15.0°C 25% 21.0 mph WNW33.8 kmh WNW 29.0 mph46.7 kmh 30.04 in1017.3 mb 0.00 in0.0 mm 0.00 in0.0 mm 0.00 in0.0 mm
06:45 PM 37.7°F3.2°C 5.0°F-15.0°C 25% 14.0 mph NW22.5 kmh NW 35.0 mph56.3 kmh 30.04 in1017.3 mb 0.00 in0.0 mm 0.00 in0.0 mm 0.00 in0.0 mm
06:50 PM 37.5°F3.1°C 4.9°F-15.1°C 25% 12.0 mph W19.3 kmh W 30.0 mph48.3 kmh 30.03 in1016.9 mb 0.00 in0.0 mm 0.00 in0.0 mm 0.00 in0.0 mm
06:55 PM 37.5°F3.1°C 4.9°F-15.1°C 25% 15.0 mph NW24.1 kmh NW 29.0 mph46.7 kmh 30.03 in1016.9 mb 0.00 in0.0 mm 0.00 in0.0 mm 0.00 in0.0 mm
07:00 PM 37.4°F3.0°C 5.6°F-14.7°C 26% 4.0 mph WNW6.4 kmh WNW 28.0 mph45.1 kmh 30.03 in1016.9 mb 0.00 in0.0 mm 0.00 in0.0 mm 0.00 in0.0 mm
07:05 PM 37.6°F3.1°C 5.0°F-15.0°C 25% 26.0 mph W41.8 kmh W 30.0 mph48.3 kmh 30.04 in1017.3 mb 0.00 in0.0 mm 0.00 in0.0 mm 0.00 in0.0 mm
07:10 PM 37.7°F3.2°C 4.2°F-15.4°C 24% 13.0 mph WSW20.9 kmh WSW 36.0 mph57.9 kmh 30.04 in1017.3 mb 0.00 in0.0 mm 0.00 in0.0 mm 0.00 in0.0 mm
07:15 PM 37.3°F2.9°C 5.5°F-14.7°C 26% 18.0 mph WNW29.0 kmh WNW 21.0 mph33.8 kmh 30.05 in1017.6 mb 0.00 in0.0 mm 0.00 in0.0 mm 0.00 in0.0 mm
07:20 PM 37.2°F2.9°C 4.6°F-15.2°C 25% 5.0 mph SW8.0 kmh SW 21.0 mph33.8 kmh 30.05 in1017.6 mb 0.00 in0.0 mm 0.00 in0.0 mm 0.00 in0.0 mm
07:25 PM 37.4°F3.0°C 3.9°F-15.6°C 24% 13.0 mph WNW20.9 kmh WNW 21.0 mph33.8 kmh 30.05 in1017.6 mb 0.00 in0.0 mm 0.00 in0.0 mm 0.00 in0.0 mm
07:30 PM 37.2°F2.9°C 4.6°F-15.2°C 25% 17.0 mph W27.4 kmh W 32.0 mph51.5 kmh 30.06 in1017.9 mb 0.00 in0.0 mm 0.00 in0.0 mm 0.00 in0.0 mm
07:35 PM 37.0°F2.8°C 4.4°F-15.3°C 25% 6.0 mph NNW9.7 kmh NNW 18.0 mph29.0 kmh 30.07 in1018.3 mb 0.00 in0.0 mm 0.00 in0.0 mm 0.00 in0.0 mm
07:40 PM 36.7°F2.6°C 5.0°F-15.0°C 26% 8.0 mph WNW12.9 kmh WNW 22.0 mph35.4 kmh 30.07 in1018.3 mb 0.00 in0.0 mm 0.00 in0.0 mm 0.00 in0.0 mm
07:45 PM 36.2°F2.3°C 5.4°F-14.8°C 27% 9.0 mph NW14.5 kmh NW 17.0 mph27.4 kmh 30.07 in1018.3 mb 0.00 in0.0 mm 0.00 in0.0 mm 0.00 in0.0 mm
07:50 PM 36.0°F2.2°C 5.3°F-14.8°C 27% 11.0 mph NW17.7 kmh NW 14.0 mph22.5 kmh 30.08 in1018.6 mb 0.00 in0.0 mm 0.00 in0.0 mm 0.00 in0.0 mm
07:55 PM 35.9°F2.2°C 5.2°F-14.9°C 27% 15.0 mph NW24.1 kmh NW 25.0 mph40.2 kmh 30.08 in1018.6 mb 0.00 in0.0 mm 0.00 in0.0 mm 0.00 in0.0 mm
08:00 PM 35.9°F2.2°C 5.2°F-14.9°C 27% 5.0 mph NW8.0 kmh NW 17.0 mph27.4 kmh 30.08 in1018.6 mb 0.00 in0.0 mm 0.00 in0.0 mm 0.00 in0.0 mm
08:05 PM 35.7°F2.1°C 5.0°F-15.0°C 27% 6.0 mph NW9.7 kmh NW 15.0 mph24.1 kmh 30.08 in1018.6 mb 0.00 in0.0 mm 0.00 in0.0 mm 0.00 in0.0 mm
08:10 PM 35.7°F2.1°C 5.0°F-15.0°C 27% 6.0 mph W9.7 kmh W 25.0 mph40.2 kmh 30.08 in1018.6 mb 0.00 in0.0 mm 0.00 in0.0 mm 0.00 in0.0 mm
08:15 PM 35.7°F2.1°C 5.0°F-15.0°C 27% 16.0 mph N25.7 kmh N 19.0 mph30.6 kmh 30.09 in1019.0 mb 0.00 in0.0 mm 0.00 in0.0 mm 0.00 in0.0 mm
08:20 PM 35.7°F2.1°C 5.0°F-15.0°C 27% 2.0 mph W3.2 kmh W 15.0 mph24.1 kmh 30.09 in1019.0 mb 0.00 in0.0 mm 0.00 in0.0 mm 0.00 in0.0 mm
08:25 PM 35.5°F1.9°C 5.6°F-14.7°C 28% 4.0 mph W6.4 kmh W 17.0 mph27.4 kmh 30.09 in1019.0 mb 0.00 in0.0 mm 0.00 in0.0 mm 0.00 in0.0 mm
08:30 PM 35.4°F1.9°C 4.7°F-15.2°C 27% 9.0 mph NW14.5 kmh NW 21.0 mph33.8 kmh 30.09 in1019.0 mb 0.00 in0.0 mm 0.00 in0.0 mm 0.00 in0.0 mm
08:35 PM 35.3°F1.8°C 5.4°F-14.8°C 28% 3.0 mph NW4.8 kmh NW 19.0 mph30.6 kmh 30.09 in1019.0 mb 0.00 in0.0 mm 0.00 in0.0 mm 0.00 in0.0 mm
08:40 PM 35.2°F1.8°C 5.4°F-14.8°C 28% 7.0 mph SW11.3 kmh SW 15.0 mph24.1 kmh 30.09 in1019.0 mb 0.00 in0.0 mm 0.00 in0.0 mm 0.00 in0.0 mm
08:45 PM 35.0°F1.7°C 5.2°F-14.9°C 28% 5.0 mph WNW8.0 kmh WNW 16.0 mph25.7 kmh 30.10 in1019.3 mb 0.00 in0.0 mm 0.00 in0.0 mm 0.00 in0.0 mm
08:50 PM 35.0°F1.7°C 5.2°F-14.9°C 28% 7.0 mph NW11.3 kmh NW 14.0 mph22.5 kmh 30.10 in1019.3 mb 0.00 in0.0 mm 0.00 in0.0 mm 0.00 in0.0 mm
08:55 PM 35.0°F1.7°C 5.2°F-14.9°C 28% 9.0 mph W14.5 kmh W 14.0 mph22.5 kmh 30.10 in1019.3 mb 0.00 in0.0 mm 0.00 in0.0 mm 0.00 in0.0 mm
09:00 PM 35.1°F1.7°C 5.3°F-14.8°C 28% 13.0 mph NW20.9 kmh NW 19.0 mph30.6 kmh 30.09 in1019.0 mb 0.00 in0.0 mm 0.00 in0.0 mm 0.00 in0.0 mm
09:05 PM 35.1°F1.7°C 5.3°F-14.8°C 28% 4.0 mph WNW6.4 kmh WNW 18.0 mph29.0 kmh 30.10 in1019.3 mb 0.00 in0.0 mm 0.00 in0.0 mm 0.00 in0.0 mm
09:10 PM 34.9°F1.6°C 5.9°F-14.5°C 29% 3.0 mph ENE4.8 kmh ENE 10.0 mph16.1 kmh 30.11 in1019.6 mb 0.00 in0.0 mm 0.00 in0.0 mm 0.00 in0.0 mm
09:15 PM 34.7°F1.5°C 5.7°F-14.6°C 29% 2.0 mph N3.2 kmh N 7.0 mph11.3 kmh 30.11 in1019.6 mb 0.00 in0.0 mm 0.00 in0.0 mm 0.00 in0.0 mm
09:20 PM 34.5°F1.4°C 5.5°F-14.7°C 29% 2.0 mph E3.2 kmh E 3.0 mph4.8 kmh 30.11 in1019.6 mb 0.00 in0.0 mm 0.00 in0.0 mm 0.00 in0.0 mm
09:25 PM 34.2°F1.2°C 5.2°F-14.9°C 29% 3.0 mph NE4.8 kmh NE 8.0 mph12.9 kmh 30.11 in1019.6 mb 0.00 in0.0 mm 0.00 in0.0 mm 0.00 in0.0 mm
09:30 PM 34.2°F1.2°C 5.2°F-14.9°C 29% Calm Calm 7.0 mph11.3 kmh 30.11 in1019.6 mb 0.00 in0.0 mm 0.00 in0.0 mm 0.00 in0.0 mm
09:35 PM 34.3°F1.3°C 5.3°F-14.8°C 29% Calm Calm 11.0 mph17.7 kmh 30.11 in1019.6 mb 0.00 in0.0 mm 0.00 in0.0 mm 0.00 in0.0 mm
09:40 PM 34.2°F1.2°C 5.2°F-14.9°C 29% 6.0 mph NW9.7 kmh NW 9.0 mph14.5 kmh 30.11 in1019.6 mb 0.00 in0.0 mm 0.00 in0.0 mm 0.00 in0.0 mm
09:45 PM 34.1°F1.2°C 5.2°F-14.9°C 29% Calm Calm 7.0 mph11.3 kmh 30.11 in1019.6 mb 0.00 in0.0 mm 0.00 in0.0 mm 0.00 in0.0 mm
09:50 PM 33.7°F0.9°C 5.6°F-14.7°C 30% 1.0 mph E1.6 kmh E 15.0 mph24.1 kmh 30.11 in1019.6 mb 0.00 in0.0 mm 0.00 in0.0 mm 0.00 in0.0 mm
09:55 PM 33.6°F0.9°C 5.5°F-14.7°C 30% 3.0 mph SE4.8 kmh SE 6.0 mph9.7 kmh 30.11 in1019.6 mb 0.00 in0.0 mm 0.00 in0.0 mm 0.00 in0.0 mm
10:00 PM 33.5°F0.8°C 5.4°F-14.8°C 30% 4.0 mph NE6.4 kmh NE 13.0 mph20.9 kmh 30.11 in1019.6 mb 0.00 in0.0 mm 0.00 in0.0 mm 0.00 in0.0 mm
10:05 PM 33.3°F0.7°C 5.2°F-14.9°C 30% 1.0 mph SSE1.6 kmh SSE 9.0 mph14.5 kmh 30.11 in1019.6 mb 0.00 in0.0 mm 0.00 in0.0 mm 0.00 in0.0 mm
10:10 PM 33.3°F0.7°C 5.9°F-14.5°C 31% 2.0 mph E3.2 kmh E 9.0 mph14.5 kmh 30.11 in1019.6 mb 0.00 in0.0 mm 0.00 in0.0 mm 0.00 in0.0 mm
10:15 PM 33.3°F0.7°C 5.9°F-14.5°C 31% 2.0 mph N3.2 kmh N 6.0 mph9.7 kmh 30.10 in1019.3 mb 0.00 in0.0 mm 0.00 in0.0 mm 0.00 in0.0 mm
10:20 PM 33.4°F0.8°C 6.0°F-14.4°C 31% 2.0 mph W3.2 kmh W 10.0 mph16.1 kmh 30.11 in1019.6 mb 0.00 in0.0 mm 0.00 in0.0 mm 0.00 in0.0 mm
10:25 PM 33.8°F1.0°C 6.4°F-14.2°C 31% 4.0 mph WNW6.4 kmh WNW 14.0 mph22.5 kmh 30.10 in1019.3 mb 0.00 in0.0 mm 0.00 in0.0 mm 0.00 in0.0 mm
10:30 PM 33.9°F1.1°C 6.4°F-14.2°C 31% 12.0 mph WSW19.3 kmh WSW 18.0 mph29.0 kmh 30.10 in1019.3 mb 0.00 in0.0 mm 0.00 in0.0 mm 0.00 in0.0 mm
10:35 PM 34.1°F1.2°C 6.6°F-14.1°C 31% 6.0 mph W9.7 kmh W 19.0 mph30.6 kmh 30.10 in1019.3 mb 0.00 in0.0 mm 0.00 in0.0 mm 0.00 in0.0 mm
10:40 PM 34.0°F1.1°C 6.5°F-14.2°C 31% 3.0 mph NW4.8 kmh NW 15.0 mph24.1 kmh 30.11 in1019.6 mb 0.00 in0.0 mm 0.00 in0.0 mm 0.00 in0.0 mm
10:45 PM 34.1°F1.2°C 5.9°F-14.5°C 30% 3.0 mph NW4.8 kmh NW 20.0 mph32.2 kmh 30.11 in1019.6 mb 0.00 in0.0 mm 0.00 in0.0 mm 0.00 in0.0 mm
10:50 PM 34.1°F1.2°C 6.6°F-14.1°C 31% 7.0 mph W11.3 kmh W 15.0 mph24.1 kmh 30.11 in1019.6 mb 0.00 in0.0 mm 0.00 in0.0 mm 0.00 in0.0 mm
10:55 PM 33.9°F1.1°C 5.7°F-14.6°C 30% 7.0 mph W11.3 kmh W 10.0 mph16.1 kmh 30.11 in1019.6 mb 0.00 in0.0 mm 0.00 in0.0 mm 0.00 in0.0 mm
11:00 PM 33.9°F1.1°C 5.7°F-14.6°C 30% 7.0 mph WNW11.3 kmh WNW 11.0 mph17.7 kmh 30.11 in1019.6 mb 0.00 in0.0 mm 0.00 in0.0 mm 0.00 in0.0 mm
11:05 PM 34.0°F1.1°C 5.8°F-14.6°C 30% 6.0 mph SW9.7 kmh SW 14.0 mph22.5 kmh 30.11 in1019.6 mb 0.00 in0.0 mm 0.00 in0.0 mm 0.00 in0.0 mm
11:10 PM 34.0°F1.1°C 5.8°F-14.6°C 30% 5.0 mph S8.0 kmh S 11.0 mph17.7 kmh 30.11 in1019.6 mb 0.00 in0.0 mm 0.00 in0.0 mm 0.00 in0.0 mm
11:15 PM 34.0°F1.1°C 5.8°F-14.6°C 30% 5.0 mph WNW8.0 kmh WNW 16.0 mph25.7 kmh 30.10 in1019.3 mb 0.00 in0.0 mm 0.00 in0.0 mm 0.00 in0.0 mm
11:20 PM 34.1°F1.2°C 5.9°F-14.5°C 30% 3.0 mph W4.8 kmh W 17.0 mph27.4 kmh 30.10 in1019.3 mb 0.00 in0.0 mm 0.00 in0.0 mm 0.00 in0.0 mm
11:25 PM 33.9°F1.1°C 5.7°F-14.6°C 30% 4.0 mph WSW6.4 kmh WSW 14.0 mph22.5 kmh 30.09 in1019.0 mb 0.00 in0.0 mm 0.00 in0.0 mm 0.00 in0.0 mm
11:30 PM 33.9°F1.1°C 5.7°F-14.6°C 30% 8.0 mph WSW12.9 kmh WSW 16.0 mph25.7 kmh 30.09 in1019.0 mb 0.00 in0.0 mm 0.00 in0.0 mm 0.00 in0.0 mm
11:35 PM 33.9°F1.1°C 5.7°F-14.6°C 30% 2.0 mph W3.2 kmh W 15.0 mph24.1 kmh 30.09 in1019.0 mb 0.00 in0.0 mm 0.00 in0.0 mm 0.00 in0.0 mm
11:40 PM 33.9°F1.1°C 5.7°F-14.6°C 30% 3.0 mph N4.8 kmh N 12.0 mph19.3 kmh 30.10 in1019.3 mb 0.00 in0.0 mm 0.00 in0.0 mm 0.00 in0.0 mm
11:45 PM 33.8°F1.0°C 5.6°F-14.7°C 30% 5.0 mph NW8.0 kmh NW 8.0 mph12.9 kmh 30.10 in1019.3 mb 0.00 in0.0 mm 0.00 in0.0 mm 0.00 in0.0 mm
11:50 PM 33.7°F0.9°C 5.6°F-14.7°C 30% 5.0 mph NNW8.0 kmh NNW 6.0 mph9.7 kmh 30.10 in1019.3 mb 0.00 in0.0 mm 0.00 in0.0 mm 0.00 in0.0 mm
11:55 PM 33.5°F0.8°C 6.1°F-14.4°C 31% 7.0 mph N11.3 kmh N 11.0 mph17.7 kmh 30.10 in1019.3 mb 0.00 in0.0 mm 0.00 in0.0 mm 0.00 in0.0 mm